sensor_id;sensor_type;location;lat;lon;timestamp;P1;durP1;ratioP1;P2;durP2;ratioP2
43690;SDS011;29293;52.190;21.226;2023-01-01T00:01:36;28.70;;;16.50;;
43690;SDS011;29293;52.190;21.226;2023-01-01T00:16:49;19.50;;;11.10;;
43690;SDS011;29293;52.190;21.226;2023-01-01T00:32:00;15.00;;;8.60;;
43690;SDS011;29293;52.190;21.226;2023-01-01T00:47:14;15.10;;;8.30;;
43690;SDS011;29293;52.190;21.226;2023-01-01T01:02:27;11.40;;;7.40;;
43690;SDS011;29293;52.190;21.226;2023-01-01T01:17:42;13.00;;;6.50;;
43690;SDS011;29293;52.190;21.226;2023-01-01T01:32:52;13.40;;;7.20;;
43690;SDS011;29293;52.190;21.226;2023-01-01T01:48:02;11.70;;;6.80;;
43690;SDS011;29293;52.190;21.226;2023-01-01T02:03:15;13.50;;;7.60;;
43690;SDS011;29293;52.190;21.226;2023-01-01T02:18:28;11.00;;;6.70;;
43690;SDS011;29293;52.190;21.226;2023-01-01T02:33:43;12.60;;;6.90;;
43690;SDS011;29293;52.190;21.226;2023-01-01T02:48:54;12.20;;;7.30;;
43690;SDS011;29293;52.190;21.226;2023-01-01T03:04:06;12.70;;;7.40;;
43690;SDS011;29293;52.190;21.226;2023-01-01T03:19:29;11.30;;;6.50;;
43690;SDS011;29293;52.190;21.226;2023-01-01T03:34:43;9.80;;;6.00;;
43690;SDS011;29293;52.190;21.226;2023-01-01T03:49:57;9.90;;;6.10;;
43690;SDS011;29293;52.190;21.226;2023-01-01T04:05:08;9.90;;;5.60;;
43690;SDS011;29293;52.190;21.226;2023-01-01T04:20:18;7.30;;;4.80;;
43690;SDS011;29293;52.190;21.226;2023-01-01T04:35:27;7.80;;;4.40;;
43690;SDS011;29293;52.190;21.226;2023-01-01T04:50:37;8.00;;;4.30;;
43690;SDS011;29293;52.190;21.226;2023-01-01T05:05:46;7.00;;;4.00;;
43690;SDS011;29293;52.190;21.226;2023-01-01T05:21:06;6.80;;;4.30;;
43690;SDS011;29293;52.190;21.226;2023-01-01T05:36:19;9.10;;;4.10;;
43690;SDS011;29293;52.190;21.226;2023-01-01T05:51:30;7.20;;;3.50;;
43690;SDS011;29293;52.190;21.226;2023-01-01T06:06:41;6.80;;;3.70;;
43690;SDS011;29293;52.190;21.226;2023-01-01T06:21:50;6.80;;;3.50;;
43690;SDS011;29293;52.190;21.226;2023-01-01T06:36:59;8.50;;;5.50;;
43690;SDS011;29293;52.190;21.226;2023-01-01T06:52:09;7.90;;;3.40;;
43690;SDS011;29293;52.190;21.226;2023-01-01T07:07:19;7.50;;;4.00;;
43690;SDS011;29293;52.190;21.226;2023-01-01T07:37:35;8.20;;;3.70;;
43690;SDS011;29293;52.190;21.226;2023-01-01T07:52:43;8.20;;;3.60;;
43690;SDS011;29293;52.190;21.226;2023-01-01T08:07:51;7.90;;;4.00;;
43690;SDS011;29293;52.190;21.226;2023-01-01T08:23:00;8.50;;;3.70;;
43690;SDS011;29293;52.190;21.226;2023-01-01T08:38:10;10.10;;;3.80;;
43690;SDS011;29293;52.190;21.226;2023-01-01T08:53:20;13.90;;;4.10;;
43690;SDS011;29293;52.190;21.226;2023-01-01T09:23:36;8.70;;;3.60;;
43690;SDS011;29293;52.190;21.226;2023-01-01T09:38:48;10.10;;;3.40;;
43690;SDS011;29293;52.190;21.226;2023-01-01T09:53:58;7.60;;;3.80;;
43690;SDS011;29293;52.190;21.226;2023-01-01T10:09:14;11.90;;;3.00;;
43690;SDS011;29293;52.190;21.226;2023-01-01T10:24:33;6.60;;;2.80;;
43690;SDS011;29293;52.190;21.226;2023-01-01T10:39:48;10.60;;;3.30;;
43690;SDS011;29293;52.190;21.226;2023-01-01T10:54:57;13.50;;;3.30;;
43690;SDS011;29293;52.190;21.226;2023-01-01T11:10:14;10.40;;;3.30;;
43690;SDS011;29293;52.190;21.226;2023-01-01T11:25:26;13.20;;;3.40;;
43690;SDS011;29293;52.190;21.226;2023-01-01T11:40:37;12.00;;;3.20;;
43690;SDS011;29293;52.190;21.226;2023-01-01T11:55:59;9.90;;;3.10;;
43690;SDS011;29293;52.190;21.226;2023-01-01T12:11:16;10.40;;;3.10;;
43690;SDS011;29293;52.190;21.226;2023-01-01T12:26:31;7.60;;;3.10;;
43690;SDS011;29293;52.190;21.226;2023-01-01T12:41:51;9.70;;;3.10;;
43690;SDS011;29293;52.190;21.226;2023-01-01T12:57:09;13.20;;;5.80;;
43690;SDS011;29293;52.190;21.226;2023-01-01T13:12:29;11.30;;;3.60;;
43690;SDS011;29293;52.190;21.226;2023-01-01T13:28:02;9.80;;;4.40;;
43690;SDS011;29293;52.190;21.226;2023-01-01T13:43:26;12.00;;;4.40;;
43690;SDS011;29293;52.190;21.226;2023-01-01T14:14:46;12.00;;;3.90;;
43690;SDS011;29293;52.190;21.226;2023-01-01T14:29:56;10.00;;;4.30;;
43690;SDS011;29293;52.190;21.226;2023-01-01T14:45:11;14.80;;;5.60;;
43690;SDS011;29293;52.190;21.226;2023-01-01T15:00:25;19.60;;;9.20;;
43690;SDS011;29293;52.190;21.226;2023-01-01T15:15:38;16.00;;;6.50;;
43690;SDS011;29293;52.190;21.226;2023-01-01T15:30:52;9.70;;;5.10;;
43690;SDS011;29293;52.190;21.226;2023-01-01T15:46:15;9.00;;;4.50;;
43690;SDS011;29293;52.190;21.226;2023-01-01T16:01:28;15.00;;;6.40;;
43690;SDS011;29293;52.190;21.226;2023-01-01T16:16:48;14.10;;;6.60;;
43690;SDS011;29293;52.190;21.226;2023-01-01T16:32:05;15.00;;;6.50;;
43690;SDS011;29293;52.190;21.226;2023-01-01T16:47:26;11.50;;;5.70;;
43690;SDS011;29293;52.190;21.226;2023-01-01T17:02:36;14.00;;;6.40;;
43690;SDS011;29293;52.190;21.226;2023-01-01T17:17:48;10.00;;;5.90;;
43690;SDS011;29293;52.190;21.226;2023-01-01T17:33:00;13.10;;;6.80;;
43690;SDS011;29293;52.190;21.226;2023-01-01T17:48:11;13.60;;;6.90;;
43690;SDS011;29293;52.190;21.226;2023-01-01T18:03:22;13.00;;;5.80;;
43690;SDS011;29293;52.190;21.226;2023-01-01T18:18:37;13.50;;;6.50;;
43690;SDS011;29293;52.190;21.226;2023-01-01T18:33:49;12.90;;;6.20;;
43690;SDS011;29293;52.190;21.226;2023-01-01T18:49:00;14.60;;;6.90;;
43690;SDS011;29293;52.190;21.226;2023-01-01T19:04:18;13.10;;;7.10;;
43690;SDS011;29293;52.190;21.226;2023-01-01T19:19:28;12.40;;;7.40;;
43690;SDS011;29293;52.190;21.226;2023-01-01T19:34:45;13.70;;;7.70;;
43690;SDS011;29293;52.190;21.226;2023-01-01T19:49:55;14.40;;;7.70;;
43690;SDS011;29293;52.190;21.226;2023-01-01T20:05:08;18.30;;;9.50;;
43690;SDS011;29293;52.190;21.226;2023-01-01T20:20:20;17.10;;;9.10;;
43690;SDS011;29293;52.190;21.226;2023-01-01T20:35:39;19.40;;;8.80;;
43690;SDS011;29293;52.190;21.226;2023-01-01T20:51:06;19.90;;;10.00;;
43690;SDS011;29293;52.190;21.226;2023-01-01T21:06:34;19.90;;;10.20;;
43690;SDS011;29293;52.190;21.226;2023-01-01T21:21:48;18.10;;;9.80;;
43690;SDS011;29293;52.190;21.226;2023-01-01T21:37:09;18.30;;;9.30;;
43690;SDS011;29293;52.190;21.226;2023-01-01T21:52:55;21.90;;;9.70;;
43690;SDS011;29293;52.190;21.226;2023-01-01T22:08:21;16.00;;;9.10;;
43690;SDS011;29293;52.190;21.226;2023-01-01T22:23:34;19.90;;;9.80;;
43690;SDS011;29293;52.190;21.226;2023-01-01T22:38:50;19.20;;;9.80;;
43690;SDS011;29293;52.190;21.226;2023-01-01T22:54:09;22.20;;;11.40;;
43690;SDS011;29293;52.190;21.226;2023-01-01T23:09:19;22.80;;;10.60;;
43690;SDS011;29293;52.190;21.226;2023-01-01T23:24:31;20.80;;;10.80;;
43690;SDS011;29293;52.190;21.226;2023-01-01T23:39:46;20.20;;;8.40;;
43690;SDS011;29293;52.190;21.226;2023-01-01T23:54:56;21.70;;;11.30;;
